sensor_id;sensor_type;location;lat;lon;timestamp;temperature;humidity
14604;DHT22;7388;51.078;13.740;2023-03-21T00:00:21;15.10;48.80
14604;DHT22;7388;51.078;13.740;2023-03-21T00:02:47;15.00;48.70
14604;DHT22;7388;51.078;13.740;2023-03-21T00:05:13;15.00;48.80
14604;DHT22;7388;51.078;13.740;2023-03-21T00:07:39;15.10;48.90
14604;DHT22;7388;51.078;13.740;2023-03-21T00:10:05;15.10;48.90
14604;DHT22;7388;51.078;13.740;2023-03-21T00:12:31;15.10;48.90
14604;DHT22;7388;51.078;13.740;2023-03-21T00:14:57;15.00;48.70
14604;DHT22;7388;51.078;13.740;2023-03-21T00:17:29;15.10;48.80
14604;DHT22;7388;51.078;13.740;2023-03-21T00:19:57;15.10;48.70
14604;DHT22;7388;51.078;13.740;2023-03-21T00:22:24;15.10;48.60
14604;DHT22;7388;51.078;13.740;2023-03-21T00:24:50;15.10;48.80
14604;DHT22;7388;51.078;13.740;2023-03-21T00:27:16;15.10;48.80
14604;DHT22;7388;51.078;13.740;2023-03-21T00:29:47;15.10;48.70
14604;DHT22;7388;51.078;13.740;2023-03-21T00:32:16;15.10;48.70
14604;DHT22;7388;51.078;13.740;2023-03-21T00:34:43;15.10;48.80
14604;DHT22;7388;51.078;13.740;2023-03-21T00:37:10;15.10;48.90
14604;DHT22;7388;51.078;13.740;2023-03-21T00:39:39;15.10;49.00
14604;DHT22;7388;51.078;13.740;2023-03-21T00:42:05;15.10;48.70
14604;DHT22;7388;51.078;13.740;2023-03-21T00:44:30;15.10;48.80
14604;DHT22;7388;51.078;13.740;2023-03-21T00:47:02;15.10;48.70
14604;DHT22;7388;51.078;13.740;2023-03-21T00:49:28;15.10;48.70
14604;DHT22;7388;51.078;13.740;2023-03-21T00:51:59;15.10;48.50
14604;DHT22;7388;51.078;13.740;2023-03-21T00:54:25;15.10;48.40
14604;DHT22;7388;51.078;13.740;2023-03-21T00:56:51;15.10;48.30
14604;DHT22;7388;51.078;13.740;2023-03-21T00:59:18;15.00;48.00
14604;DHT22;7388;51.078;13.740;2023-03-21T01:01:44;15.00;48.00
14604;DHT22;7388;51.078;13.740;2023-03-21T01:04:12;14.90;48.20
14604;DHT22;7388;51.078;13.740;2023-03-21T01:06:41;14.90;48.30
14604;DHT22;7388;51.078;13.740;2023-03-21T01:09:12;14.80;48.20
14604;DHT22;7388;51.078;13.740;2023-03-21T01:11:38;14.90;48.40
14604;DHT22;7388;51.078;13.740;2023-03-21T01:14:04;14.80;48.40
14604;DHT22;7388;51.078;13.740;2023-03-21T01:16:30;14.80;48.50
14604;DHT22;7388;51.078;13.740;2023-03-21T01:18:56;14.80;48.60
14604;DHT22;7388;51.078;13.740;2023-03-21T01:21:22;14.80;48.60
14604;DHT22;7388;51.078;13.740;2023-03-21T01:23:48;14.80;48.60
14604;DHT22;7388;51.078;13.740;2023-03-21T01:26:14;14.80;48.50
14604;DHT22;7388;51.078;13.740;2023-03-21T01:28:41;14.80;48.30
14604;DHT22;7388;51.078;13.740;2023-03-21T01:31:09;14.80;48.20
14604;DHT22;7388;51.078;13.740;2023-03-21T01:33:36;14.80;48.20
14604;DHT22;7388;51.078;13.740;2023-03-21T01:36:02;14.70;48.30
14604;DHT22;7388;51.078;13.740;2023-03-21T01:38:28;14.70;48.30
14604;DHT22;7388;51.078;13.740;2023-03-21T01:40:54;14.70;48.20
14604;DHT22;7388;51.078;13.740;2023-03-21T01:43:29;14.70;48.20
14604;DHT22;7388;51.078;13.740;2023-03-21T01:48:53;14.70;48.20
14604;DHT22;7388;51.078;13.740;2023-03-21T01:51:21;14.60;48.20
14604;DHT22;7388;51.078;13.740;2023-03-21T01:53:47;14.50;48.10
14604;DHT22;7388;51.078;13.740;2023-03-21T01:56:30;14.40;48.10
14604;DHT22;7388;51.078;13.740;2023-03-21T01:59:03;14.40;48.10
14604;DHT22;7388;51.078;13.740;2023-03-21T02:01:30;14.30;48.40
14604;DHT22;7388;51.078;13.740;2023-03-21T02:03:56;14.30;48.40
14604;DHT22;7388;51.078;13.740;2023-03-21T02:06:56;14.30;48.50
14604;DHT22;7388;51.078;13.740;2023-03-21T02:09:26;14.30;48.20
14604;DHT22;7388;51.078;13.740;2023-03-21T02:11:53;14.30;48.20
14604;DHT22;7388;51.078;13.740;2023-03-21T02:14:20;14.30;48.30
14604;DHT22;7388;51.078;13.740;2023-03-21T02:22:19;14.40;48.40
14604;DHT22;7388;51.078;13.740;2023-03-21T02:28:21;14.40;48.20
14604;DHT22;7388;51.078;13.740;2023-03-21T02:42:51;14.20;47.70
14604;DHT22;7388;51.078;13.740;2023-03-21T02:45:19;14.10;47.70
14604;DHT22;7388;51.078;13.740;2023-03-21T02:47:50;14.10;47.60
14604;DHT22;7388;51.078;13.740;2023-03-21T02:52:56;14.00;47.30
14604;DHT22;7388;51.078;13.740;2023-03-21T02:55:27;13.90;47.10
14604;DHT22;7388;51.078;13.740;2023-03-21T02:57:56;13.90;47.00
14604;DHT22;7388;51.078;13.740;2023-03-21T03:00:27;13.80;46.60
14604;DHT22;7388;51.078;13.740;2023-03-21T03:02:54;13.80;46.80
14604;DHT22;7388;51.078;13.740;2023-03-21T03:05:22;13.80;46.80
14604;DHT22;7388;51.078;13.740;2023-03-21T03:11:04;13.80;46.70
14604;DHT22;7388;51.078;13.740;2023-03-21T03:18:58;13.70;46.50
14604;DHT22;7388;51.078;13.740;2023-03-21T03:21:32;13.70;46.50
14604;DHT22;7388;51.078;13.740;2023-03-21T03:24:06;13.70;46.50
14604;DHT22;7388;51.078;13.740;2023-03-21T03:26:44;13.70;46.50
14604;DHT22;7388;51.078;13.740;2023-03-21T03:29:15;13.70;46.50
14604;DHT22;7388;51.078;13.740;2023-03-21T03:31:54;13.70;46.60
14604;DHT22;7388;51.078;13.740;2023-03-21T03:34:24;13.80;46.60
14604;DHT22;7388;51.078;13.740;2023-03-21T03:36:55;13.70;46.60
14604;DHT22;7388;51.078;13.740;2023-03-21T03:42:40;13.70;46.50
14604;DHT22;7388;51.078;13.740;2023-03-21T03:45:09;13.70;46.50
14604;DHT22;7388;51.078;13.740;2023-03-21T03:47:53;13.70;46.70
14604;DHT22;7388;51.078;13.740;2023-03-21T03:50:34;12.70;46.20
14604;DHT22;7388;51.078;13.740;2023-03-21T03:53:15;13.70;46.80
14604;DHT22;7388;51.078;13.740;2023-03-21T03:55:44;13.70;46.90
14604;DHT22;7388;51.078;13.740;2023-03-21T03:58:10;13.60;46.80
14604;DHT22;7388;51.078;13.740;2023-03-21T04:00:37;13.60;46.80
14604;DHT22;7388;51.078;13.740;2023-03-21T04:03:03;13.70;46.90
14604;DHT22;7388;51.078;13.740;2023-03-21T04:05:31;13.60;46.80
14604;DHT22;7388;51.078;13.740;2023-03-21T04:07:57;13.60;46.90
14604;DHT22;7388;51.078;13.740;2023-03-21T04:10:23;13.70;47.20
14604;DHT22;7388;51.078;13.740;2023-03-21T04:12:49;13.60;47.00
14604;DHT22;7388;51.078;13.740;2023-03-21T04:15:15;13.50;47.10
14604;DHT22;7388;51.078;13.740;2023-03-21T04:17:41;13.60;47.20
14604;DHT22;7388;51.078;13.740;2023-03-21T04:20:07;13.60;47.30
14604;DHT22;7388;51.078;13.740;2023-03-21T04:22:33;13.50;47.20
14604;DHT22;7388;51.078;13.740;2023-03-21T04:24:59;13.50;47.30
14604;DHT22;7388;51.078;13.740;2023-03-21T04:27:30;13.60;47.40
14604;DHT22;7388;51.078;13.740;2023-03-21T04:29:57;13.60;47.40
14604;DHT22;7388;51.078;13.740;2023-03-21T04:32:24;13.50;47.30
14604;DHT22;7388;51.078;13.740;2023-03-21T04:34:51;13.60;47.40
14604;DHT22;7388;51.078;13.740;2023-03-21T04:37:20;13.50;47.40
14604;DHT22;7388;51.078;13.740;2023-03-21T04:39:48;13.50;47.50
14604;DHT22;7388;51.078;13.740;2023-03-21T04:42:16;13.50;47.40
14604;DHT22;7388;51.078;13.740;2023-03-21T04:44:44;13.50;47.40
14604;DHT22;7388;51.078;13.740;2023-03-21T04:47:10;13.50;47.50
14604;DHT22;7388;51.078;13.740;2023-03-21T04:49:37;13.50;47.30
14604;DHT22;7388;51.078;13.740;2023-03-21T04:52:04;13.60;47.30
14604;DHT22;7388;51.078;13.740;2023-03-21T04:54:30;13.60;47.20
14604;DHT22;7388;51.078;13.740;2023-03-21T04:56:57;13.60;47.00
14604;DHT22;7388;51.078;13.740;2023-03-21T04:59:23;13.60;47.00
14604;DHT22;7388;51.078;13.740;2023-03-21T05:01:49;13.60;47.00
14604;DHT22;7388;51.078;13.740;2023-03-21T05:04:15;13.70;47.00
14604;DHT22;7388;51.078;13.740;2023-03-21T05:06:42;13.70;47.10
14604;DHT22;7388;51.078;13.740;2023-03-21T05:09:08;13.70;46.90
14604;DHT22;7388;51.078;13.740;2023-03-21T05:11:36;13.70;47.00
14604;DHT22;7388;51.078;13.740;2023-03-21T05:14:03;13.70;47.30
14604;DHT22;7388;51.078;13.740;2023-03-21T05:16:29;13.60;47.30
14604;DHT22;7388;51.078;13.740;2023-03-21T05:18:56;13.60;47.30
14604;DHT22;7388;51.078;13.740;2023-03-21T05:21:24;13.60;47.90
14604;DHT22;7388;51.078;13.740;2023-03-21T05:23:54;13.60;47.30
14604;DHT22;7388;51.078;13.740;2023-03-21T05:26:23;13.60;47.10
14604;DHT22;7388;51.078;13.740;2023-03-21T05:28:49;13.60;46.90
14604;DHT22;7388;51.078;13.740;2023-03-21T05:31:17;13.60;46.90
14604;DHT22;7388;51.078;13.740;2023-03-21T05:33:43;13.60;46.90
14604;DHT22;7388;51.078;13.740;2023-03-21T05:36:10;13.50;46.90
14604;DHT22;7388;51.078;13.740;2023-03-21T05:38:35;13.60;46.90
14604;DHT22;7388;51.078;13.740;2023-03-21T05:41:01;13.50;46.80
14604;DHT22;7388;51.078;13.740;2023-03-21T05:43:27;13.60;46.90
14604;DHT22;7388;51.078;13.740;2023-03-21T05:45:53;13.60;46.90
14604;DHT22;7388;51.078;13.740;2023-03-21T05:48:19;13.60;46.90
14604;DHT22;7388;51.078;13.740;2023-03-21T05:50:45;13.70;46.90
14604;DHT22;7388;51.078;13.740;2023-03-21T05:53:11;13.70;46.80
14604;DHT22;7388;51.078;13.740;2023-03-21T05:55:37;13.70;46.70
14604;DHT22;7388;51.078;13.740;2023-03-21T05:58:03;13.70;46.50
14604;DHT22;7388;51.078;13.740;2023-03-21T06:00:29;13.60;46.50
14604;DHT22;7388;51.078;13.740;2023-03-21T06:02:55;13.60;46.60
14604;DHT22;7388;51.078;13.740;2023-03-21T06:05:21;13.70;47.10
14604;DHT22;7388;51.078;13.740;2023-03-21T06:07:47;13.70;47.10
14604;DHT22;7388;51.078;13.740;2023-03-21T06:10:12;13.70;46.90
14604;DHT22;7388;51.078;13.740;2023-03-21T06:12:38;13.70;46.70
14604;DHT22;7388;51.078;13.740;2023-03-21T06:15:05;13.70;46.80
14604;DHT22;7388;51.078;13.740;2023-03-21T06:17:31;13.70;46.50
14604;DHT22;7388;51.078;13.740;2023-03-21T06:19:57;13.70;46.80
14604;DHT22;7388;51.078;13.740;2023-03-21T06:22:26;13.70;47.00
14604;DHT22;7388;51.078;13.740;2023-03-21T06:24:52;13.80;46.40
14604;DHT22;7388;51.078;13.740;2023-03-21T06:27:17;13.80;46.40
14604;DHT22;7388;51.078;13.740;2023-03-21T06:29:43;13.80;46.50
14604;DHT22;7388;51.078;13.740;2023-03-21T06:32:11;13.80;46.20
14604;DHT22;7388;51.078;13.740;2023-03-21T06:34:37;13.90;46.30
14604;DHT22;7388;51.078;13.740;2023-03-21T06:37:02;13.90;45.90
14604;DHT22;7388;51.078;13.740;2023-03-21T06:39:29;13.80;45.80
14604;DHT22;7388;51.078;13.740;2023-03-21T06:41:56;13.80;46.00
14604;DHT22;7388;51.078;13.740;2023-03-21T06:44:22;13.90;46.20
14604;DHT22;7388;51.078;13.740;2023-03-21T06:46:49;13.80;45.70
14604;DHT22;7388;51.078;13.740;2023-03-21T06:49:15;13.80;45.50
14604;DHT22;7388;51.078;13.740;2023-03-21T06:51:41;13.70;45.90
14604;DHT22;7388;51.078;13.740;2023-03-21T06:54:07;13.70;46.20
14604;DHT22;7388;51.078;13.740;2023-03-21T06:56:33;13.70;46.30
14604;DHT22;7388;51.078;13.740;2023-03-21T06:58:59;13.70;46.40
14604;DHT22;7388;51.078;13.740;2023-03-21T07:01:25;13.80;46.10
14604;DHT22;7388;51.078;13.740;2023-03-21T07:03:52;13.80;46.20
14604;DHT22;7388;51.078;13.740;2023-03-21T07:06:18;13.90;45.80
14604;DHT22;7388;51.078;13.740;2023-03-21T07:08:44;14.00;45.80
14604;DHT22;7388;51.078;13.740;2023-03-21T07:11:12;14.10;46.00
14604;DHT22;7388;51.078;13.740;2023-03-21T07:13:38;14.10;45.70
14604;DHT22;7388;51.078;13.740;2023-03-21T07:16:05;14.10;45.80
14604;DHT22;7388;51.078;13.740;2023-03-21T07:18:31;14.20;45.70
14604;DHT22;7388;51.078;13.740;2023-03-21T07:20:57;14.20;45.80
14604;DHT22;7388;51.078;13.740;2023-03-21T07:23:24;14.20;46.10
14604;DHT22;7388;51.078;13.740;2023-03-21T07:25:51;14.20;45.80
14604;DHT22;7388;51.078;13.740;2023-03-21T07:28:17;14.10;45.90
14604;DHT22;7388;51.078;13.740;2023-03-21T07:30:44;14.10;46.20
14604;DHT22;7388;51.078;13.740;2023-03-21T07:33:11;14.10;45.60
14604;DHT22;7388;51.078;13.740;2023-03-21T07:35:37;14.10;46.20
14604;DHT22;7388;51.078;13.740;2023-03-21T07:38:04;14.10;46.50
14604;DHT22;7388;51.078;13.740;2023-03-21T07:40:30;14.20;46.60
14604;DHT22;7388;51.078;13.740;2023-03-21T07:42:56;14.20;46.40
14604;DHT22;7388;51.078;13.740;2023-03-21T07:45:22;14.30;46.70
14604;DHT22;7388;51.078;13.740;2023-03-21T07:47:50;14.30;46.90
14604;DHT22;7388;51.078;13.740;2023-03-21T07:50:16;14.40;46.80
14604;DHT22;7388;51.078;13.740;2023-03-21T07:52:42;14.50;46.90
14604;DHT22;7388;51.078;13.740;2023-03-21T07:55:08;14.60;46.90
14604;DHT22;7388;51.078;13.740;2023-03-21T07:57:34;14.70;46.90
14604;DHT22;7388;51.078;13.740;2023-03-21T08:00:02;14.70;46.70
14604;DHT22;7388;51.078;13.740;2023-03-21T08:02:28;14.80;45.80
14604;DHT22;7388;51.078;13.740;2023-03-21T08:04:54;14.80;45.60
14604;DHT22;7388;51.078;13.740;2023-03-21T08:07:20;14.80;45.20
14604;DHT22;7388;51.078;13.740;2023-03-21T08:09:46;14.80;44.80
14604;DHT22;7388;51.078;13.740;2023-03-21T08:12:12;14.80;45.00
14604;DHT22;7388;51.078;13.740;2023-03-21T08:14:38;14.90;45.90
14604;DHT22;7388;51.078;13.740;2023-03-21T08:17:04;14.90;45.20
14604;DHT22;7388;51.078;13.740;2023-03-21T08:19:30;15.00;45.60
14604;DHT22;7388;51.078;13.740;2023-03-21T08:21:56;15.00;45.00
14604;DHT22;7388;51.078;13.740;2023-03-21T08:24:27;15.00;45.00
14604;DHT22;7388;51.078;13.740;2023-03-21T08:26:53;15.00;44.40
14604;DHT22;7388;51.078;13.740;2023-03-21T08:29:19;15.00;44.40
14604;DHT22;7388;51.078;13.740;2023-03-21T08:31:46;15.10;44.40
14604;DHT22;7388;51.078;13.740;2023-03-21T08:34:12;15.10;44.50
14604;DHT22;7388;51.078;13.740;2023-03-21T08:36:38;15.20;44.20
14604;DHT22;7388;51.078;13.740;2023-03-21T08:39:04;15.20;43.90
14604;DHT22;7388;51.078;13.740;2023-03-21T08:41:35;15.20;43.90
14604;DHT22;7388;51.078;13.740;2023-03-21T08:44:02;15.20;44.00
14604;DHT22;7388;51.078;13.740;2023-03-21T08:46:29;15.30;44.30
14604;DHT22;7388;51.078;13.740;2023-03-21T08:48:57;15.30;44.20
14604;DHT22;7388;51.078;13.740;2023-03-21T08:51:23;15.40;44.10
14604;DHT22;7388;51.078;13.740;2023-03-21T08:53:49;15.40;43.60
14604;DHT22;7388;51.078;13.740;2023-03-21T08:56:17;15.50;43.80
14604;DHT22;7388;51.078;13.740;2023-03-21T08:58:43;15.50;43.00
14604;DHT22;7388;51.078;13.740;2023-03-21T09:01:09;15.40;43.20
14604;DHT22;7388;51.078;13.740;2023-03-21T09:03:40;15.50;43.60
14604;DHT22;7388;51.078;13.740;2023-03-21T09:06:07;15.50;43.60
14604;DHT22;7388;51.078;13.740;2023-03-21T09:08:36;15.50;43.30
14604;DHT22;7388;51.078;13.740;2023-03-21T09:11:02;15.60;43.30
14604;DHT22;7388;51.078;13.740;2023-03-21T09:13:28;15.70;43.80
14604;DHT22;7388;51.078;13.740;2023-03-21T09:15:54;15.70;42.60
14604;DHT22;7388;51.078;13.740;2023-03-21T09:18:22;15.70;42.90
14604;DHT22;7388;51.078;13.740;2023-03-21T09:21:07;15.60;42.30
14604;DHT22;7388;51.078;13.740;2023-03-21T09:23:37;15.70;42.80
14604;DHT22;7388;51.078;13.740;2023-03-21T09:26:04;15.70;43.00
14604;DHT22;7388;51.078;13.740;2023-03-21T09:28:31;15.70;42.80
14604;DHT22;7388;51.078;13.740;2023-03-21T09:30:58;15.80;42.40
14604;DHT22;7388;51.078;13.740;2023-03-21T09:33:25;15.90;43.10
14604;DHT22;7388;51.078;13.740;2023-03-21T09:35:55;16.00;42.90
14604;DHT22;7388;51.078;13.740;2023-03-21T09:38:23;16.10;42.30
14604;DHT22;7388;51.078;13.740;2023-03-21T09:49:21;16.10;42.20
14604;DHT22;7388;51.078;13.740;2023-03-21T09:51:51;16.20;42.50
14604;DHT22;7388;51.078;13.740;2023-03-21T09:54:29;16.20;41.80
14604;DHT22;7388;51.078;13.740;2023-03-21T09:57:04;16.20;41.70
14604;DHT22;7388;51.078;13.740;2023-03-21T09:59:36;16.10;41.80
14604;DHT22;7388;51.078;13.740;2023-03-21T10:02:39;16.20;41.20
14604;DHT22;7388;51.078;13.740;2023-03-21T10:05:27;16.20;42.30
14604;DHT22;7388;51.078;13.740;2023-03-21T10:08:05;16.30;42.50
14604;DHT22;7388;51.078;13.740;2023-03-21T10:10:50;16.50;43.20
14604;DHT22;7388;51.078;13.740;2023-03-21T10:13:31;16.50;40.40
14604;DHT22;7388;51.078;13.740;2023-03-21T10:16:01;16.70;42.10
14604;DHT22;7388;51.078;13.740;2023-03-21T10:18:32;16.80;41.60
14604;DHT22;7388;51.078;13.740;2023-03-21T10:20:58;16.80;41.30
14604;DHT22;7388;51.078;13.740;2023-03-21T10:23:27;17.00;41.70
14604;DHT22;7388;51.078;13.740;2023-03-21T10:25:56;17.20;41.00
14604;DHT22;7388;51.078;13.740;2023-03-21T10:28:37;17.20;40.00
14604;DHT22;7388;51.078;13.740;2023-03-21T10:31:05;17.30;40.80
14604;DHT22;7388;51.078;13.740;2023-03-21T10:33:37;17.40;40.40
14604;DHT22;7388;51.078;13.740;2023-03-21T10:36:14;17.50;39.70
14604;DHT22;7388;51.078;13.740;2023-03-21T10:39:53;17.60;39.90
14604;DHT22;7388;51.078;13.740;2023-03-21T10:41:54;17.70;40.10
14604;DHT22;7388;51.078;13.740;2023-03-21T10:44:20;17.80;40.00
14604;DHT22;7388;51.078;13.740;2023-03-21T10:46:52;17.90;39.60
14604;DHT22;7388;51.078;13.740;2023-03-21T10:49:18;18.10;39.40
14604;DHT22;7388;51.078;13.740;2023-03-21T10:51:50;18.10;38.60
14604;DHT22;7388;51.078;13.740;2023-03-21T10:54:19;18.10;38.60
14604;DHT22;7388;51.078;13.740;2023-03-21T10:57:05;18.00;38.30
14604;DHT22;7388;51.078;13.740;2023-03-21T10:59:42;18.10;38.00
14604;DHT22;7388;51.078;13.740;2023-03-21T11:02:46;18.10;38.10
14604;DHT22;7388;51.078;13.740;2023-03-21T11:05:24;18.20;38.60
14604;DHT22;7388;51.078;13.740;2023-03-21T11:08:04;18.20;38.50
14604;DHT22;7388;51.078;13.740;2023-03-21T11:10:34;18.20;37.40
14604;DHT22;7388;51.078;13.740;2023-03-21T11:13:07;18.20;38.10
14604;DHT22;7388;51.078;13.740;2023-03-21T11:18:23;18.30;38.70
14604;DHT22;7388;51.078;13.740;2023-03-21T11:21:00;18.40;38.60
14604;DHT22;7388;51.078;13.740;2023-03-21T11:23:32;18.50;39.10
14604;DHT22;7388;51.078;13.740;2023-03-21T11:26:00;18.50;37.70
14604;DHT22;7388;51.078;13.740;2023-03-21T11:28:32;18.50;37.70
14604;DHT22;7388;51.078;13.740;2023-03-21T11:31:01;18.60;37.40
14604;DHT22;7388;51.078;13.740;2023-03-21T11:33:34;18.70;37.00
14604;DHT22;7388;51.078;13.740;2023-03-21T11:36:07;18.80;36.70
14604;DHT22;7388;51.078;13.740;2023-03-21T11:38:51;18.80;36.80
14604;DHT22;7388;51.078;13.740;2023-03-21T11:41:31;18.90;38.10
14604;DHT22;7388;51.078;13.740;2023-03-21T11:43:58;18.90;36.00
14604;DHT22;7388;51.078;13.740;2023-03-21T11:46:27;18.90;36.60
14604;DHT22;7388;51.078;13.740;2023-03-21T11:48:54;18.90;37.00
14604;DHT22;7388;51.078;13.740;2023-03-21T11:51:47;18.90;36.70
14604;DHT22;7388;51.078;13.740;2023-03-21T11:55:02;19.10;37.40
14604;DHT22;7388;51.078;13.740;2023-03-21T11:57:38;19.20;38.10
14604;DHT22;7388;51.078;13.740;2023-03-21T12:00:17;19.40;37.20
14604;DHT22;7388;51.078;13.740;2023-03-21T12:05:36;19.40;36.40
14604;DHT22;7388;51.078;13.740;2023-03-21T12:08:22;19.40;36.30
14604;DHT22;7388;51.078;13.740;2023-03-21T12:24:54;19.40;36.40
14604;DHT22;7388;51.078;13.740;2023-03-21T12:27:35;19.20;35.90
14604;DHT22;7388;51.078;13.740;2023-03-21T12:30:15;19.10;36.30
14604;DHT22;7388;51.078;13.740;2023-03-21T12:38:22;19.10;37.00
14604;DHT22;7388;51.078;13.740;2023-03-21T12:44:16;19.20;37.40
14604;DHT22;7388;51.078;13.740;2023-03-21T12:46:56;19.30;38.00
14604;DHT22;7388;51.078;13.740;2023-03-21T12:49:31;19.50;38.40
14604;DHT22;7388;51.078;13.740;2023-03-21T12:52:09;19.60;38.10
14604;DHT22;7388;51.078;13.740;2023-03-21T12:54:52;19.70;36.70
14604;DHT22;7388;51.078;13.740;2023-03-21T12:57:27;19.80;36.20
14604;DHT22;7388;51.078;13.740;2023-03-21T13:02:33;19.70;36.50
14604;DHT22;7388;51.078;13.740;2023-03-21T13:05:19;19.80;36.70
14604;DHT22;7388;51.078;13.740;2023-03-21T13:07:50;19.80;36.00
14604;DHT22;7388;51.078;13.740;2023-03-21T13:10:19;19.80;36.50
14604;DHT22;7388;51.078;13.740;2023-03-21T13:21:45;19.90;35.50
14604;DHT22;7388;51.078;13.740;2023-03-21T13:29:46;20.00;35.80
14604;DHT22;7388;51.078;13.740;2023-03-21T13:32:42;20.10;35.50
14604;DHT22;7388;51.078;13.740;2023-03-21T13:35:16;20.40;35.60
14604;DHT22;7388;51.078;13.740;2023-03-21T13:37:52;20.40;34.70
14604;DHT22;7388;51.078;13.740;2023-03-21T13:40:24;20.50;35.40
14604;DHT22;7388;51.078;13.740;2023-03-21T13:42:57;20.60;35.90
14604;DHT22;7388;51.078;13.740;2023-03-21T13:45:37;20.70;35.60
14604;DHT22;7388;51.078;13.740;2023-03-21T13:48:27;20.80;35.00
14604;DHT22;7388;51.078;13.740;2023-03-21T13:51:02;20.90;33.90
14604;DHT22;7388;51.078;13.740;2023-03-21T13:53:39;20.80;33.40
14604;DHT22;7388;51.078;13.740;2023-03-21T14:01:31;20.40;33.50
14604;DHT22;7388;51.078;13.740;2023-03-21T14:07:24;20.30;35.10
14604;DHT22;7388;51.078;13.740;2023-03-21T14:09:45;20.50;35.10
14604;DHT22;7388;51.078;13.740;2023-03-21T14:12:23;20.60;34.80
14604;DHT22;7388;51.078;13.740;2023-03-21T14:14:52;20.60;34.10
14604;DHT22;7388;51.078;13.740;2023-03-21T14:17:24;20.60;34.30
14604;DHT22;7388;51.078;13.740;2023-03-21T14:19:56;20.60;34.50
14604;DHT22;7388;51.078;13.740;2023-03-21T14:22:22;20.60;34.70
14604;DHT22;7388;51.078;13.740;2023-03-21T14:24:58;20.70;35.30
14604;DHT22;7388;51.078;13.740;2023-03-21T14:27:28;20.80;33.50
14604;DHT22;7388;51.078;13.740;2023-03-21T14:29:55;20.60;33.80
14604;DHT22;7388;51.078;13.740;2023-03-21T14:32:25;20.50;34.40
14604;DHT22;7388;51.078;13.740;2023-03-21T14:34:53;20.60;34.50
14604;DHT22;7388;51.078;13.740;2023-03-21T14:37:37;20.60;35.00
14604;DHT22;7388;51.078;13.740;2023-03-21T14:40:21;20.70;35.10
14604;DHT22;7388;51.078;13.740;2023-03-21T14:42:48;20.80;34.60
14604;DHT22;7388;51.078;13.740;2023-03-21T14:45:20;20.70;34.90
14604;DHT22;7388;51.078;13.740;2023-03-21T14:48:03;20.70;34.50
14604;DHT22;7388;51.078;13.740;2023-03-21T14:50:45;20.60;34.90
14604;DHT22;7388;51.078;13.740;2023-03-21T14:53:30;20.60;34.50
14604;DHT22;7388;51.078;13.740;2023-03-21T14:56:09;20.50;34.30
14604;DHT22;7388;51.078;13.740;2023-03-21T14:58:40;20.40;35.10
14604;DHT22;7388;51.078;13.740;2023-03-21T15:01:14;20.40;34.60
14604;DHT22;7388;51.078;13.740;2023-03-21T15:03:44;20.30;35.10
14604;DHT22;7388;51.078;13.740;2023-03-21T15:06:13;20.30;35.00
14604;DHT22;7388;51.078;13.740;2023-03-21T15:08:39;20.30;35.10
14604;DHT22;7388;51.078;13.740;2023-03-21T15:11:10;20.20;35.20
14604;DHT22;7388;51.078;13.740;2023-03-21T15:13:43;20.10;35.40
14604;DHT22;7388;51.078;13.740;2023-03-21T15:16:11;20.10;35.90
14604;DHT22;7388;51.078;13.740;2023-03-21T15:18:39;20.00;35.70
14604;DHT22;7388;51.078;13.740;2023-03-21T15:23:42;19.80;35.80
14604;DHT22;7388;51.078;13.740;2023-03-21T15:26:17;19.80;36.20
14604;DHT22;7388;51.078;13.740;2023-03-21T15:28:49;19.70;36.30
14604;DHT22;7388;51.078;13.740;2023-03-21T15:31:22;19.70;36.70
14604;DHT22;7388;51.078;13.740;2023-03-21T15:33:50;19.70;36.30
14604;DHT22;7388;51.078;13.740;2023-03-21T15:36:28;19.70;36.40
14604;DHT22;7388;51.078;13.740;2023-03-21T15:39:00;19.70;36.40
14604;DHT22;7388;51.078;13.740;2023-03-21T15:41:29;19.60;36.40
14604;DHT22;7388;51.078;13.740;2023-03-21T15:44:00;19.50;36.70
14604;DHT22;7388;51.078;13.740;2023-03-21T15:46:45;19.50;36.80
14604;DHT22;7388;51.078;13.740;2023-03-21T15:51:49;19.40;37.20
14604;DHT22;7388;51.078;13.740;2023-03-21T15:54:28;19.40;37.30
14604;DHT22;7388;51.078;13.740;2023-03-21T15:57:00;19.40;37.50
14604;DHT22;7388;51.078;13.740;2023-03-21T15:59:35;19.40;37.80
14604;DHT22;7388;51.078;13.740;2023-03-21T16:02:03;19.50;37.80
14604;DHT22;7388;51.078;13.740;2023-03-21T16:04:30;19.40;37.90
14604;DHT22;7388;51.078;13.740;2023-03-21T16:07:00;19.50;37.80
14604;DHT22;7388;51.078;13.740;2023-03-21T16:09:27;19.50;37.70
14604;DHT22;7388;51.078;13.740;2023-03-21T16:11:55;19.50;37.70
14604;DHT22;7388;51.078;13.740;2023-03-21T16:14:22;19.50;37.50
14604;DHT22;7388;51.078;13.740;2023-03-21T16:16:49;19.40;37.30
14604;DHT22;7388;51.078;13.740;2023-03-21T16:19:15;19.40;37.40
14604;DHT22;7388;51.078;13.740;2023-03-21T16:21:41;19.30;37.30
14604;DHT22;7388;51.078;13.740;2023-03-21T16:24:08;19.30;37.20
14604;DHT22;7388;51.078;13.740;2023-03-21T16:26:38;19.30;37.30
14604;DHT22;7388;51.078;13.740;2023-03-21T16:29:05;19.30;37.30
14604;DHT22;7388;51.078;13.740;2023-03-21T16:31:34;19.20;37.60
14604;DHT22;7388;51.078;13.740;2023-03-21T16:34:00;19.20;37.60
14604;DHT22;7388;51.078;13.740;2023-03-21T16:36:29;19.10;37.40
14604;DHT22;7388;51.078;13.740;2023-03-21T16:38:56;19.10;37.60
14604;DHT22;7388;51.078;13.740;2023-03-21T16:41:24;19.00;37.60
14604;DHT22;7388;51.078;13.740;2023-03-21T16:43:50;19.00;37.70
14604;DHT22;7388;51.078;13.740;2023-03-21T16:46:24;18.90;37.80
14604;DHT22;7388;51.078;13.740;2023-03-21T16:48:55;18.90;37.90
14604;DHT22;7388;51.078;13.740;2023-03-21T16:51:33;18.80;38.10
14604;DHT22;7388;51.078;13.740;2023-03-21T16:53:59;18.70;38.20
14604;DHT22;7388;51.078;13.740;2023-03-21T16:56:36;18.70;38.30
14604;DHT22;7388;51.078;13.740;2023-03-21T16:59:03;18.70;38.40
14604;DHT22;7388;51.078;13.740;2023-03-21T17:01:31;18.70;38.40
14604;DHT22;7388;51.078;13.740;2023-03-21T17:03:57;18.70;38.50
14604;DHT22;7388;51.078;13.740;2023-03-21T17:06:25;18.70;38.50
14604;DHT22;7388;51.078;13.740;2023-03-21T17:08:56;18.70;38.50
14604;DHT22;7388;51.078;13.740;2023-03-21T17:11:24;18.70;38.60
14604;DHT22;7388;51.078;13.740;2023-03-21T17:13:52;18.70;38.70
14604;DHT22;7388;51.078;13.740;2023-03-21T17:16:20;18.60;38.60
14604;DHT22;7388;51.078;13.740;2023-03-21T17:18:47;18.60;38.60
14604;DHT22;7388;51.078;13.740;2023-03-21T17:21:17;18.60;38.80
14604;DHT22;7388;51.078;13.740;2023-03-21T17:23:43;18.60;38.70
14604;DHT22;7388;51.078;13.740;2023-03-21T17:26:12;18.50;38.70
14604;DHT22;7388;51.078;13.740;2023-03-21T17:28:39;18.50;38.90
14604;DHT22;7388;51.078;13.740;2023-03-21T17:31:18;18.50;39.00
14604;DHT22;7388;51.078;13.740;2023-03-21T17:33:46;18.50;39.10